CheckWX is a tool to help pilots better visualize weather data.  It is not intended as a substitute for an official pre-flight weather briefing.

19:59:49 UTC

KASL METAR
Harrison County Airport
Marshall, Texas, USA
Current

25 mins ago

KASL 251935Z AUTO 16010KT 10SM CLR 25/22 A3006 RMK AO1 T02520215
Observed
Jun-25 @ 19:35 UTC
Wind
  • 160° at 10 KTS
Visibility
10 SM
Flight Rules
VFR
Cloud Levels
  • Clear skies
Temperature
25°C / 77°F
Dewpoint
22°C / 72°F
Humidity
83%
Altimeter
30.06" Hg
Pressure
1017.92 hPa
Previous

45 mins ago

KASL 251915Z AUTO 17012G16KT 10SM CLR 28/23 A3006 RMK AO1 T02800228
Observed
Jun-25 @ 19:15 UTC
Wind
  • 170° at 12 KTS
  • Gusting to 16 KTS
Visibility
10 SM
Flight Rules
VFR
Cloud Levels
  • Clear skies
Temperature
28°C / 82°F
Dewpoint
23°C / 73°F
Heat Index
31°C / 87°F
Humidity
74%
Altimeter
30.06" Hg
Pressure
1017.92 hPa
Previous

1 hour ago

KASL 251855Z AUTO 16008KT 110V180 10SM CLR 28/22 A3007 RMK AO1 T02800222
Observed
Jun-25 @ 18:55 UTC
Wind
  • 160° at 8 KTS
Visibility
10 SM
Flight Rules
VFR
Cloud Levels
  • Clear skies
Temperature
28°C / 82°F
Dewpoint
22°C / 72°F
Heat Index
30°C / 86°F
Humidity
70%
Altimeter
30.07" Hg
Pressure
1018.32 hPa